Time;durP1;ratioP1;P1;durP2;ratioP2;P2;SDS_P1;SDS_P2;PMS_P1;PMS_P2;Temp;Humidity;BMP_temperature;BMP_pressure;BME280_temperature;BME280_humidity;BME280_pressure;Samples;Min_cycle;Max_cycle;Signal;HPM_P1;HPM_P2
2022/01/12 00:02:07;;;;;;;9.43;6.38;;;;;;;;;;4987980;28;20332;-83
2022/01/12 00:04:33;;;;;;;8.75;6.35;;;;;;;;;;5032357;28;20029;-84
2022/01/12 00:06:58;;;;;;;8.80;6.95;;;;;;;;;;5003202;28;20037;-83
2022/01/12 00:09:24;;;;;;;7.00;5.78;;;;;;;;;;5048761;28;20495;-83
2022/01/12 00:11:49;;;;;;;8.60;6.85;;;;;;;;;;4996165;28;20021;-82
2022/01/12 00:14:15;;;;;;;7.57;5.68;;;;;;;;;;5013485;28;20665;-83
2022/01/12 00:16:46;;;;;;;9.32;6.45;;;;;;;;;;4998945;28;20052;-83
2022/01/12 00:19:11;;;;;;;8.32;6.70;;;;;;;;;;5023887;28;20112;-82
2022/01/12 00:21:37;;;;;;;7.35;6.20;;;;;;;;;;5000587;28;20121;-82
2022/01/12 00:24:03;;;;;;;7.90;6.28;;;;;;;;;;5031986;28;20026;-83
2022/01/12 00:34:25;;;;;;;8.65;5.63;;;;;;;;;;5017598;28;20099;-82
2022/01/12 00:36:50;;;;;;;8.25;6.85;;;;;;;;;;4986323;28;20041;-82
2022/01/12 00:39:16;;;;;;;6.13;5.18;;;;;;;;;;5028478;28;20380;-82
2022/01/12 00:41:41;;;;;;;8.93;6.03;;;;;;;;;;5031967;28;20140;-82
2022/01/12 00:44:09;;;;;;;7.30;5.20;;;;;;;;;;5000417;28;20403;-82
2022/01/12 00:46:35;;;;;;;8.80;6.18;;;;;;;;;;4999547;28;20109;-82
2022/01/12 00:49:00;;;;;;;7.70;5.68;;;;;;;;;;4986484;28;20067;-82
2022/01/12 00:51:27;;;;;;;7.97;5.35;;;;;;;;;;5038163;28;20085;-82
2022/01/12 00:53:54;;;;;;;8.70;5.95;;;;;;;;;;5034452;28;20043;-82
2022/01/12 00:56:20;;;;;;;7.20;5.03;;;;;;;;;;5017800;28;20029;-82
2022/01/12 00:58:46;;;;;;;8.15;5.63;;;;;;;;;;5034439;28;20048;-82
2022/01/12 01:01:11;;;;;;;6.95;5.18;;;;;;;;;;5023125;28;20041;-82
2022/01/12 01:03:37;;;;;;;7.65;6.15;;;;;;;;;;4998169;28;20033;-82
2022/01/12 01:06:02;;;;;;;6.75;5.65;;;;;;;;;;5009484;28;20018;-82
2022/01/12 01:08:28;;;;;;;6.93;5.45;;;;;;;;;;4995127;28;20034;-82
2022/01/12 01:10:56;;;;;;;9.00;5.90;;;;;;;;;;5023716;28;20113;-82
2022/01/12 01:13:25;;;;;;;7.55;5.72;;;;;;;;;;5007919;28;20024;-81
2022/01/12 01:15:59;;;;;;;7.13;5.93;;;;;;;;;;5043984;28;20580;-82
2022/01/12 01:26:38;;;;;;;7.40;4.95;;;;;;;;;;5024380;28;20063;-81
2022/01/12 01:29:04;;;;;;;6.32;5.22;;;;;;;;;;5019083;28;20033;-82
2022/01/12 01:31:32;;;;;;;7.63;5.55;;;;;;;;;;5000109;28;20093;-82
2022/01/12 01:34:05;;;;;;;7.18;5.55;;;;;;;;;;5042166;28;20033;-81
2022/01/12 01:36:30;;;;;;;5.93;5.05;;;;;;;;;;5011615;28;20483;-81
2022/01/12 01:38:56;;;;;;;5.60;4.60;;;;;;;;;;5014278;28;20095;-81
2022/01/12 01:41:22;;;;;;;7.72;5.60;;;;;;;;;;5014434;28;20025;-82
2022/01/12 01:54:47;;;;;;;7.30;4.93;;;;;;;;;;5016209;28;20041;-82
2022/01/12 01:57:13;;;;;;;5.50;4.63;;;;;;;;;;4997909;28;20029;-81
2022/01/12 01:59:38;;;;;;;7.63;4.82;;;;;;;;;;5031849;28;20037;-81
2022/01/12 02:02:10;;;;;;;7.30;5.20;;;;;;;;;;5032751;28;20030;-82
2022/01/12 02:04:39;;;;;;;6.70;5.13;;;;;;;;;;5042617;28;20029;-83
2022/01/12 02:07:04;;;;;;;6.22;4.88;;;;;;;;;;5014182;28;20275;-82
2022/01/12 02:09:30;;;;;;;6.30;4.60;;;;;;;;;;4981636;28;20030;-82
2022/01/12 02:11:55;;;;;;;6.25;4.70;;;;;;;;;;4997774;28;20398;-82
2022/01/12 02:14:21;;;;;;;6.63;5.07;;;;;;;;;;4997615;28;20041;-82
2022/01/12 02:17:12;;;;;;;5.65;4.60;;;;;;;;;;5009082;28;20376;-82
2022/01/12 02:36:13;;;;;;;6.10;4.35;;;;;;;;;;5015261;28;20108;-81
2022/01/12 02:41:23;;;;;;;6.57;4.60;;;;;;;;;;5016197;28;20068;-81
2022/01/12 02:54:49;;;;;;;6.28;4.18;;;;;;;;;;5029551;28;20041;-82
2022/01/12 02:57:15;;;;;;;7.53;4.70;;;;;;;;;;5035861;28;20033;-82
2022/01/12 02:59:59;;;;;;;6.50;4.40;;;;;;;;;;5020835;28;20556;-82
2022/01/12 03:02:41;;;;;;;5.90;4.50;;;;;;;;;;5008071;28;20061;-82
2022/01/12 03:07:40;;;;;;;7.18;4.65;;;;;;;;;;5033466;28;20037;-82
2022/01/12 03:10:06;;;;;;;5.03;4.22;;;;;;;;;;5017598;28;20025;-82
2022/01/12 03:12:32;;;;;;;7.05;4.80;;;;;;;;;;5000918;28;20033;-82
2022/01/12 03:14:57;;;;;;;6.30;4.50;;;;;;;;;;5000439;28;20621;-82
2022/01/12 03:17:23;;;;;;;6.70;4.95;;;;;;;;;;5016120;28;20068;-82
2022/01/12 03:19:48;;;;;;;5.72;3.95;;;;;;;;;;5016016;28;20037;-82
2022/01/12 03:22:14;;;;;;;6.15;4.03;;;;;;;;;;4993153;28;20495;-82
2022/01/12 03:24:39;;;;;;;5.13;4.28;;;;;;;;;;5005008;28;20048;-83
2022/01/12 03:27:06;;;;;;;5.53;3.97;;;;;;;;;;4999374;28;20029;-82
2022/01/12 03:29:32;;;;;;;5.72;4.43;;;;;;;;;;5000582;28;20094;-83
2022/01/12 03:31:59;;;;;;;5.78;4.47;;;;;;;;;;4983919;28;20038;-82
2022/01/12 03:34:29;;;;;;;7.72;4.40;;;;;;;;;;5000896;28;20033;-82
2022/01/12 03:37:17;;;;;;;6.22;4.68;;;;;;;;;;4989214;28;20020;-82
2022/01/12 03:39:40;;;;;;;7.30;4.85;;;;;;;;;;5038496;28;20083;-82
2022/01/12 03:42:06;;;;;;;5.70;4.28;;;;;;;;;;5035831;28;20025;-82
2022/01/12 03:44:32;;;;;;;5.35;3.92;;;;;;;;;;5019434;28;20509;-82
2022/01/12 03:46:57;;;;;;;5.63;4.10;;;;;;;;;;5028413;28;20057;-82
2022/01/12 03:49:22;;;;;;;5.38;4.15;;;;;;;;;;4980333;28;20041;-82
2022/01/12 03:51:48;;;;;;;5.07;4.03;;;;;;;;;;5025378;28;20483;-82
2022/01/12 03:54:14;;;;;;;5.80;4.03;;;;;;;;;;5002940;28;20121;-82
2022/01/12 03:56:39;;;;;;;5.32;4.45;;;;;;;;;;4999911;28;20021;-82
2022/01/12 03:59:05;;;;;;;5.43;3.85;;;;;;;;;;5016079;28;20025;-82
2022/01/12 04:01:30;;;;;;;5.10;3.90;;;;;;;;;;4983541;28;20033;-82
2022/01/12 04:04:05;;;;;;;4.97;3.67;;;;;;;;;;5000022;28;20476;-82
2022/01/12 04:09:15;;;;;;;5.10;3.63;;;;;;;;;;5031649;28;20057;-82
2022/01/12 04:11:41;;;;;;;5.25;4.03;;;;;;;;;;4999340;28;20069;-82
2022/01/12 04:14:07;;;;;;;4.35;3.45;;;;;;;;;;5031060;28;20160;-82
2022/01/12 04:16:32;;;;;;;5.15;3.63;;;;;;;;;;5008073;28;20505;-82
2022/01/12 04:18:58;;;;;;;4.80;3.72;;;;;;;;;;5016207;28;20032;-82
2022/01/12 04:21:28;;;;;;;5.50;3.80;;;;;;;;;;4997117;28;20034;-83
2022/01/12 04:23:54;;;;;;;6.25;3.92;;;;;;;;;;4987519;28;20022;-82
2022/01/12 04:26:20;;;;;;;5.93;3.63;;;;;;;;;;5016010;28;20099;-83
2022/01/12 04:28:45;;;;;;;5.72;3.83;;;;;;;;;;4993779;28;20491;-83
2022/01/12 04:31:11;;;;;;;6.82;3.55;;;;;;;;;;5050525;28;20066;-83
2022/01/12 04:33:37;;;;;;;4.78;3.38;;;;;;;;;;5033760;28;20040;-82
2022/01/12 04:36:03;;;;;;;5.53;3.55;;;;;;;;;;5011691;28;20416;-82
2022/01/12 04:38:30;;;;;;;5.20;3.38;;;;;;;;;;4992905;28;20480;-82
2022/01/12 04:40:56;;;;;;;4.93;3.67;;;;;;;;;;5015877;28;20034;-82
2022/01/12 04:43:22;;;;;;;5.28;3.63;;;;;;;;;;5015471;28;20116;-83
2022/01/12 04:50:53;;;;;;;4.30;2.88;;;;;;;;;;4989343;28;20029;-82
2022/01/12 04:53:19;;;;;;;4.82;3.50;;;;;;;;;;5031378;28;20055;-81
2022/01/12 04:55:45;;;;;;;3.97;2.90;;;;;;;;;;4999019;28;20112;-82
2022/01/12 04:58:11;;;;;;;4.78;3.25;;;;;;;;;;4995158;28;20038;-82
2022/01/12 05:00:37;;;;;;;3.92;3.20;;;;;;;;;;4995513;28;20034;-82
2022/01/12 05:13:41;;;;;;;4.53;3.10;;;;;;;;;;5045055;28;20033;-82
2022/01/12 05:16:10;;;;;;;4.82;3.60;;;;;;;;;;5031086;28;20061;-82
2022/01/12 05:18:35;;;;;;;4.85;3.50;;;;;;;;;;5013929;28;20111;-82
2022/01/12 05:21:01;;;;;;;5.60;3.63;;;;;;;;;;5030799;28;20042;-82
2022/01/12 05:23:27;;;;;;;5.15;3.63;;;;;;;;;;5030617;28;20063;-82
2022/01/12 05:25:53;;;;;;;4.57;3.92;;;;;;;;;;5026629;28;20076;-82
2022/01/12 05:28:19;;;;;;;4.25;2.88;;;;;;;;;;4990892;28;20418;-82
2022/01/12 05:30:45;;;;;;;5.03;3.75;;;;;;;;;;4998385;28;20029;-82
2022/01/12 05:33:10;;;;;;;4.97;3.63;;;;;;;;;;4998168;28;20040;-82
2022/01/12 05:35:36;;;;;;;4.43;3.17;;;;;;;;;;5011460;28;20042;-82
2022/01/12 05:38:02;;;;;;;4.10;2.72;;;;;;;;;;4978871;28;20038;-82
2022/01/12 05:40:28;;;;;;;4.35;3.17;;;;;;;;;;5004739;28;20028;-83
2022/01/12 05:42:54;;;;;;;4.78;3.30;;;;;;;;;;5050269;28;20068;-82
2022/01/12 05:45:21;;;;;;;5.00;3.92;;;;;;;;;;5033410;28;20036;-83
2022/01/12 05:50:12;;;;;;;4.80;3.10;;;;;;;;;;5033812;28;20024;-82
2022/01/12 05:52:38;;;;;;;4.40;3.15;;;;;;;;;;5014941;28;20029;-82
2022/01/12 05:55:04;;;;;;;4.80;3.53;;;;;;;;;;4997402;28;20108;-83
2022/01/12 05:57:30;;;;;;;4.90;3.50;;;;;;;;;;5030524;28;20064;-83
2022/01/12 05:59:56;;;;;;;4.65;3.35;;;;;;;;;;5030642;28;20065;-83
2022/01/12 06:02:22;;;;;;;4.32;3.15;;;;;;;;;;5027274;28;20037;-82
2022/01/12 06:04:47;;;;;;;5.35;3.10;;;;;;;;;;5013847;28;20041;-83
2022/01/12 06:07:13;;;;;;;4.90;3.33;;;;;;;;;;5013997;28;20068;-82
2022/01/12 06:09:38;;;;;;;4.35;3.13;;;;;;;;;;4981154;28;20434;-82
2022/01/12 06:12:04;;;;;;;5.30;3.03;;;;;;;;;;5013871;28;20030;-83
2022/01/12 06:14:30;;;;;;;3.95;3.00;;;;;;;;;;5030275;28;20056;-83
2022/01/12 06:16:56;;;;;;;4.72;4.07;;;;;;;;;;5026739;28;20184;-83
2022/01/12 06:19:21;;;;;;;4.55;3.47;;;;;;;;;;4991779;28;20092;-83
2022/01/12 06:21:46;;;;;;;4.68;3.58;;;;;;;;;;5013441;28;20033;-82
2022/01/12 06:24:12;;;;;;;4.78;3.70;;;;;;;;;;5029507;28;20439;-82
2022/01/12 06:26:38;;;;;;;4.97;3.83;;;;;;;;;;5014662;28;20037;-83
2022/01/12 06:31:38;;;;;;;4.55;2.70;;;;;;;;;;5051413;28;20075;-82
2022/01/12 06:34:04;;;;;;;5.85;3.45;;;;;;;;;;5033642;28;20060;-82
2022/01/12 06:36:29;;;;;;;4.38;3.45;;;;;;;;;;5017442;28;20037;-82
2022/01/12 06:38:55;;;;;;;4.00;3.38;;;;;;;;;;5017756;28;20033;-82
2022/01/12 06:41:20;;;;;;;4.65;3.05;;;;;;;;;;4998718;28;20041;-82
2022/01/12 06:43:46;;;;;;;4.88;3.33;;;;;;;;;;5033594;28;20061;-83
2022/01/12 06:46:11;;;;;;;4.10;2.53;;;;;;;;;;5015859;28;20125;-83
2022/01/12 06:48:37;;;;;;;5.30;3.33;;;;;;;;;;5016366;28;20057;-85
2022/01/12 06:51:03;;;;;;;6.75;3.35;;;;;;;;;;5032654;28;20543;-81
2022/01/12 06:53:29;;;;;;;6.80;3.70;;;;;;;;;;5030853;28;20045;-81
2022/01/12 06:55:55;;;;;;;8.40;4.15;;;;;;;;;;5033329;28;20103;-82
2022/01/12 06:58:20;;;;;;;9.75;4.00;;;;;;;;;;5017666;28;20471;-81
2022/01/12 07:00:47;;;;;;;8.50;3.33;;;;;;;;;;5016509;28;20083;-82
2022/01/12 07:03:12;;;;;;;7.35;3.60;;;;;;;;;;5022369;28;20039;-81
2022/01/12 07:05:38;;;;;;;8.43;3.75;;;;;;;;;;5030790;28;20420;-81
2022/01/12 07:08:04;;;;;;;5.75;3.42;;;;;;;;;;5020488;28;20116;-82
2022/01/12 07:10:29;;;;;;;7.85;3.47;;;;;;;;;;5044568;28;20033;-81
2022/01/12 07:12:55;;;;;;;9.38;3.58;;;;;;;;;;5016928;28;20035;-81
2022/01/12 07:15:20;;;;;;;8.25;4.82;;;;;;;;;;5000885;28;20049;-81
2022/01/12 07:17:46;;;;;;;6.53;3.67;;;;;;;;;;4984346;28;20068;-81
2022/01/12 07:20:11;;;;;;;6.43;3.40;;;;;;;;;;4990756;28;20143;-81
2022/01/12 07:22:37;;;;;;;9.70;4.72;;;;;;;;;;5019864;28;20041;-81
2022/01/12 07:25:02;;;;;;;11.95;5.22;;;;;;;;;;5001020;28;20026;-84
2022/01/12 07:27:28;;;;;;;7.45;4.30;;;;;;;;;;4989872;28;20061;-81
2022/01/12 07:29:53;;;;;;;6.28;4.75;;;;;;;;;;5023436;28;20116;-80
2022/01/12 07:32:19;;;;;;;12.98;5.38;;;;;;;;;;5033070;28;20040;-80
2022/01/12 07:34:44;;;;;;;8.10;4.43;;;;;;;;;;5031645;28;20052;-81
2022/01/12 07:37:10;;;;;;;8.82;4.45;;;;;;;;;;5018042;28;20033;-81
2022/01/12 07:39:35;;;;;;;8.15;4.18;;;;;;;;;;5036814;28;20466;-79
2022/01/12 07:42:01;;;;;;;7.45;3.70;;;;;;;;;;5019043;28;20382;-80
2022/01/12 07:44:26;;;;;;;6.65;4.18;;;;;;;;;;5020075;28;20036;-81
2022/01/12 07:46:52;;;;;;;7.28;3.83;;;;;;;;;;5018465;28;20029;-81
2022/01/12 07:49:17;;;;;;;6.97;4.32;;;;;;;;;;5016491;28;20120;-80
2022/01/12 07:51:43;;;;;;;8.35;4.00;;;;;;;;;;5028170;28;20395;-80
2022/01/12 07:54:08;;;;;;;6.97;3.63;;;;;;;;;;5034944;28;20041;-80
2022/01/12 07:56:35;;;;;;;10.43;4.30;;;;;;;;;;5033181;28;20041;-81
2022/01/12 07:59:00;;;;;;;6.70;4.03;;;;;;;;;;4999865;28;20040;-81
2022/01/12 08:01:26;;;;;;;8.88;3.85;;;;;;;;;;5000686;28;20414;-81
2022/01/12 08:03:53;;;;;;;6.70;4.78;;;;;;;;;;5049328;28;20033;-81
2022/01/12 08:06:20;;;;;;;9.20;4.32;;;;;;;;;;5032299;28;20167;-81
2022/01/12 08:08:46;;;;;;;5.78;3.88;;;;;;;;;;5016618;28;20136;-81
2022/01/12 08:11:11;;;;;;;6.82;4.28;;;;;;;;;;5015853;28;20530;-81
2022/01/12 08:13:39;;;;;;;8.82;4.65;;;;;;;;;;4997902;28;20042;-80
2022/01/12 08:16:05;;;;;;;6.95;3.78;;;;;;;;;;5030255;28;20064;-81
2022/01/12 08:18:30;;;;;;;8.02;4.38;;;;;;;;;;5038528;28;20061;-81
2022/01/12 08:20:56;;;;;;;6.15;4.13;;;;;;;;;;5004172;28;20444;-80
2022/01/12 08:23:21;;;;;;;8.98;4.88;;;;;;;;;;4999715;28;20121;-81
2022/01/12 08:25:47;;;;;;;8.70;5.72;;;;;;;;;;5014783;28;20034;-80
2022/01/12 08:28:12;;;;;;;10.68;5.70;;;;;;;;;;5008760;28;20038;-81
2022/01/12 08:30:38;;;;;;;9.35;6.50;;;;;;;;;;5013693;28;20069;-81
2022/01/12 08:33:04;;;;;;;9.90;6.32;;;;;;;;;;5015110;28;20120;-81
2022/01/12 08:35:30;;;;;;;10.50;6.40;;;;;;;;;;5031040;28;20123;-81
2022/01/12 08:37:55;;;;;;;8.63;5.63;;;;;;;;;;5048902;28;20086;-81
2022/01/12 08:40:21;;;;;;;11.25;6.32;;;;;;;;;;5032075;28;20825;-81
2022/01/12 08:42:47;;;;;;;7.90;5.75;;;;;;;;;;5015473;28;20037;-81
2022/01/12 08:45:13;;;;;;;8.57;5.80;;;;;;;;;;5015752;28;20064;-82
2022/01/12 08:47:38;;;;;;;7.65;5.85;;;;;;;;;;4999038;28;20491;-82
2022/01/12 08:50:04;;;;;;;7.88;6.85;;;;;;;;;;5016095;28;20061;-82
2022/01/12 08:52:30;;;;;;;10.15;6.40;;;;;;;;;;5030443;28;20471;-82
2022/01/12 08:54:56;;;;;;;11.32;5.78;;;;;;;;;;5030405;28;20037;-81
2022/01/12 08:57:21;;;;;;;10.80;5.75;;;;;;;;;;5015446;28;20040;-82
2022/01/12 08:59:47;;;;;;;9.48;6.10;;;;;;;;;;5031921;28;20041;-81
2022/01/12 09:02:14;;;;;;;9.60;5.68;;;;;;;;;;5014874;28;20030;-81
2022/01/12 09:04:41;;;;;;;11.45;5.78;;;;;;;;;;4998292;28;20455;-81
2022/01/12 09:07:07;;;;;;;8.88;6.25;;;;;;;;;;5015259;28;20427;-82
2022/01/12 09:09:33;;;;;;;8.38;5.88;;;;;;;;;;5009055;28;20033;-82
2022/01/12 09:11:58;;;;;;;8.00;5.68;;;;;;;;;;4998602;28;20033;-81
2022/01/12 09:14:24;;;;;;;7.93;5.47;;;;;;;;;;4998441;28;20114;-82
2022/01/12 09:16:54;;;;;;;8.63;5.28;;;;;;;;;;5015785;28;20033;-82
2022/01/12 09:19:21;;;;;;;8.35;5.57;;;;;;;;;;5014247;28;20029;-82
2022/01/12 09:21:46;;;;;;;8.80;6.10;;;;;;;;;;4981763;28;20105;-82
2022/01/12 09:24:11;;;;;;;27.00;24.10;;;;;;;;;;5032271;28;20043;-82
2022/01/12 09:26:37;;;;;;;15.52;11.13;;;;;;;;;;5034398;28;20029;-82
2022/01/12 09:29:02;;;;;;;15.02;11.38;;;;;;;;;;5018193;28;20025;-82
2022/01/12 09:31:28;;;;;;;13.85;10.65;;;;;;;;;;5033971;28;20372;-82
2022/01/12 09:33:54;;;;;;;14.88;10.75;;;;;;;;;;5030484;28;20021;-82
2022/01/12 09:36:20;;;;;;;13.57;9.98;;;;;;;;;;5030669;28;20037;-81
2022/01/12 09:38:45;;;;;;;26.83;9.82;;;;;;;;;;4996557;28;20120;-81
2022/01/12 09:41:10;;;;;;;12.23;9.90;;;;;;;;;;5016223;28;20783;-81
2022/01/12 09:43:38;;;;;;;13.93;8.80;;;;;;;;;;5034113;28;20040;-81
2022/01/12 09:46:03;;;;;;;13.52;9.35;;;;;;;;;;5034611;28;20094;-81
2022/01/12 09:48:33;;;;;;;10.15;8.45;;;;;;;;;;5050400;28;20429;-82
2022/01/12 09:51:01;;;;;;;11.77;8.27;;;;;;;;;;5034920;28;20041;-81
2022/01/12 09:53:28;;;;;;;11.25;8.55;;;;;;;;;;5017564;28;20032;-82
2022/01/12 09:55:54;;;;;;;12.00;9.07;;;;;;;;;;5020236;28;20484;-82
2022/01/12 09:58:21;;;;;;;11.10;8.73;;;;;;;;;;4997998;28;20044;-82
2022/01/12 10:01:00;;;;;;;11.68;7.75;;;;;;;;;;5014165;28;20063;-83
2022/01/12 10:03:27;;;;;;;10.98;8.88;;;;;;;;;;5014066;28;20025;-83
2022/01/12 10:05:52;;;;;;;16.75;9.07;;;;;;;;;;4997095;28;20025;-83
2022/01/12 10:08:18;;;;;;;11.77;8.73;;;;;;;;;;5021159;28;20036;-83
2022/01/12 10:11:07;;;;;;;12.98;9.32;;;;;;;;;;5003189;28;20053;-83
2022/01/12 10:13:32;;;;;;;13.27;8.90;;;;;;;;;;4994123;28;20091;-83
2022/01/12 10:15:57;;;;;;;15.25;10.23;;;;;;;;;;4993746;28;20029;-84
2022/01/12 10:18:23;;;;;;;15.75;9.45;;;;;;;;;;4994331;28;20491;-85
2022/01/12 10:20:50;;;;;;;13.10;9.55;;;;;;;;;;4978002;28;20113;-85
2022/01/12 10:23:16;;;;;;;12.82;8.82;;;;;;;;;;5002219;28;20053;-84
2022/01/12 10:25:46;;;;;;;13.73;9.93;;;;;;;;;;5033325;28;20055;-85
2022/01/12 10:28:18;;;;;;;13.32;9.13;;;;;;;;;;5017158;28;20025;-84
2022/01/12 10:30:58;;;;;;;12.68;8.25;;;;;;;;;;5014066;28;20099;-84
2022/01/12 10:33:41;;;;;;;12.90;8.45;;;;;;;;;;5030652;28;20026;-84
2022/01/12 10:36:07;;;;;;;12.98;8.52;;;;;;;;;;5008491;28;20483;-85
2022/01/12 10:38:32;;;;;;;10.63;7.75;;;;;;;;;;5028343;28;20025;-84
2022/01/12 10:41:03;;;;;;;13.15;8.70;;;;;;;;;;5013749;28;20056;-85
2022/01/12 10:43:36;;;;;;;12.90;7.70;;;;;;;;;;5026179;28;20044;-84
2022/01/12 10:46:07;;;;;;;11.52;7.70;;;;;;;;;;5014737;28;20045;-84
2022/01/12 10:48:43;;;;;;;11.43;8.20;;;;;;;;;;5033314;28;20037;-83
2022/01/12 10:51:09;;;;;;;12.48;7.78;;;;;;;;;;5033098;28;20056;-84
2022/01/12 10:53:35;;;;;;;10.88;7.05;;;;;;;;;;5033551;28;20077;-84
2022/01/12 10:56:04;;;;;;;11.80;6.90;;;;;;;;;;5033110;28;20029;-84
2022/01/12 10:58:30;;;;;;;10.63;7.28;;;;;;;;;;5033484;28;20033;-84
2022/01/12 11:00:55;;;;;;;11.13;7.45;;;;;;;;;;5017279;28;20037;-84
2022/01/12 11:03:21;;;;;;;9.32;6.30;;;;;;;;;;4997430;28;20129;-83
2022/01/12 11:05:47;;;;;;;12.35;7.10;;;;;;;;;;5012940;28;20045;-83
2022/01/12 11:08:13;;;;;;;8.80;6.03;;;;;;;;;;4994107;28;20073;-83
2022/01/12 11:10:38;;;;;;;9.32;7.20;;;;;;;;;;4984065;28;20030;-84
2022/01/12 11:13:05;;;;;;;10.10;6.50;;;;;;;;;;4977954;28;20101;-84
2022/01/12 11:15:30;;;;;;;8.98;6.80;;;;;;;;;;4990814;28;20039;-84
2022/01/12 11:17:56;;;;;;;13.27;6.35;;;;;;;;;;5032947;28;20520;-84
2022/01/12 11:20:30;;;;;;;10.52;6.32;;;;;;;;;;4997196;28;20427;-86
2022/01/12 11:23:06;;;;;;;9.10;5.78;;;;;;;;;;4981521;28;20468;-86
2022/01/12 11:25:39;;;;;;;10.98;5.72;;;;;;;;;;4981197;28;20022;-85
2022/01/12 11:28:26;;;;;;;8.73;6.22;;;;;;;;;;4985047;28;20063;-84
2022/01/12 11:30:52;;;;;;;10.10;6.07;;;;;;;;;;5018193;28;20037;-85
2022/01/12 11:33:42;;;;;;;8.07;5.32;;;;;;;;;;5029893;28;20052;-84
2022/01/12 11:36:14;;;;;;;10.40;5.88;;;;;;;;;;4999851;28;20099;-84
2022/01/12 11:38:39;;;;;;;10.63;5.65;;;;;;;;;;5016870;28;20167;-85
2022/01/12 11:41:10;;;;;;;9.77;6.28;;;;;;;;;;5033617;28;20108;-86
2022/01/12 11:43:43;;;;;;;9.23;5.50;;;;;;;;;;5049353;28;20033;-85
2022/01/12 11:46:10;;;;;;;11.98;6.07;;;;;;;;;;5034150;28;20025;-85
2022/01/12 11:48:43;;;;;;;10.20;6.07;;;;;;;;;;5019976;28;20037;-86
2022/01/12 11:51:09;;;;;;;9.88;6.93;;;;;;;;;;5040903;28;20022;-85
2022/01/12 11:53:48;;;;;;;12.63;6.70;;;;;;;;;;5014913;28;20075;-85
2022/01/12 11:56:16;;;;;;;12.82;7.28;;;;;;;;;;5012776;28;20029;-85
2022/01/12 11:58:54;;;;;;;13.10;7.15;;;;;;;;;;5014503;28;20129;-85
2022/01/12 12:01:22;;;;;;;15.00;7.90;;;;;;;;;;5029568;28;20104;-85
2022/01/12 12:04:01;;;;;;;11.85;7.55;;;;;;;;;;5031566;28;20484;-85
2022/01/12 12:06:27;;;;;;;13.93;7.88;;;;;;;;;;5032026;28;20554;-85
2022/01/12 12:09:13;;;;;;;11.57;6.78;;;;;;;;;;5032482;28;20403;-84
2022/01/12 12:11:39;;;;;;;13.25;7.00;;;;;;;;;;5034630;28;20025;-84
2022/01/12 12:14:06;;;;;;;14.90;7.57;;;;;;;;;;5017523;28;20047;-86
2022/01/12 12:16:35;;;;;;;14.07;8.30;;;;;;;;;;4999392;28;20126;-85
2022/01/12 12:19:05;;;;;;;11.43;7.05;;;;;;;;;;5026493;28;20061;-85
2022/01/12 12:21:32;;;;;;;12.30;7.40;;;;;;;;;;5020157;28;20398;-85
2022/01/12 12:24:08;;;;;;;16.75;7.95;;;;;;;;;;5026585;28;20503;-86
2022/01/12 12:26:34;;;;;;;11.65;7.70;;;;;;;;;;5016892;28;20114;-84
2022/01/12 12:29:01;;;;;;;14.18;7.65;;;;;;;;;;4996068;28;20038;-84
2022/01/12 12:31:30;;;;;;;12.52;6.57;;;;;;;;;;4995599;28;20037;-85
2022/01/12 12:34:05;;;;;;;13.25;7.57;;;;;;;;;;5010058;28;20026;-84
2022/01/12 12:36:31;;;;;;;12.82;6.47;;;;;;;;;;5000447;28;20043;-84
2022/01/12 12:39:13;;;;;;;14.35;6.90;;;;;;;;;;5032243;28;20037;-88
2022/01/12 12:41:43;;;;;;;12.85;7.55;;;;;;;;;;5023338;28;20034;-86
2022/01/12 12:44:26;;;;;;;13.30;6.47;;;;;;;;;;5012705;28;20034;-87
2022/01/12 12:46:52;;;;;;;13.60;6.25;;;;;;;;;;5017348;28;20033;-83
2022/01/12 12:49:18;;;;;;;13.70;7.07;;;;;;;;;;5028700;28;20029;-84
2022/01/12 12:51:43;;;;;;;14.80;6.25;;;;;;;;;;5031651;28;20475;-84
2022/01/12 12:54:09;;;;;;;13.57;6.38;;;;;;;;;;4999121;28;20030;-84
2022/01/12 12:56:41;;;;;;;14.90;7.35;;;;;;;;;;5004186;28;20029;-84
2022/01/12 12:59:09;;;;;;;11.95;5.68;;;;;;;;;;5022269;28;20113;-84
2022/01/12 13:01:36;;;;;;;12.70;5.80;;;;;;;;;;4980892;28;20053;-84
2022/01/12 13:04:02;;;;;;;15.30;6.78;;;;;;;;;;5031641;28;20022;-84
2022/01/12 13:06:36;;;;;;;14.75;5.90;;;;;;;;;;4993457;28;20040;-84
2022/01/12 13:09:09;;;;;;;12.65;6.65;;;;;;;;;;5018383;28;20368;-84
2022/01/12 13:11:44;;;;;;;13.75;6.95;;;;;;;;;;5013723;28;20036;-84
2022/01/12 13:14:11;;;;;;;13.27;6.82;;;;;;;;;;5003529;28;20486;-84
2022/01/12 13:16:49;;;;;;;12.43;6.20;;;;;;;;;;5022194;28;20107;-84
2022/01/12 13:19:22;;;;;;;15.88;6.78;;;;;;;;;;4982680;28;20029;-85
2022/01/12 13:21:48;;;;;;;13.38;6.90;;;;;;;;;;4994136;28;20029;-85
2022/01/12 13:24:13;;;;;;;13.43;7.10;;;;;;;;;;5034277;28;20078;-85
2022/01/12 13:26:39;;;;;;;13.90;6.80;;;;;;;;;;5019767;28;20030;-84
2022/01/12 13:29:10;;;;;;;12.07;6.53;;;;;;;;;;4986854;28;20026;-84
2022/01/12 13:31:35;;;;;;;12.40;6.47;;;;;;;;;;4995009;28;20488;-85
2022/01/12 13:34:02;;;;;;;12.90;6.22;;;;;;;;;;5012491;28;20080;-85
2022/01/12 13:36:28;;;;;;;11.20;5.72;;;;;;;;;;5027474;28;20500;-85
2022/01/12 13:38:55;;;;;;;11.55;6.72;;;;;;;;;;5026805;28;20072;-85
2022/01/12 13:41:22;;;;;;;12.65;6.53;;;;;;;;;;5027511;28;20029;-85
2022/01/12 13:43:58;;;;;;;14.38;6.38;;;;;;;;;;5027560;28;20034;-85
2022/01/12 13:46:31;;;;;;;13.75;6.25;;;;;;;;;;4995198;28;20083;-85
2022/01/12 13:52:04;;;;;;;13.05;7.25;;;;;;;;;;5022202;28;20056;-85
2022/01/12 13:54:34;;;;;;;11.40;6.95;;;;;;;;;;5032599;28;20048;-82
2022/01/12 13:57:00;;;;;;;10.70;6.05;;;;;;;;;;5017804;28;20517;-83
2022/01/12 13:59:29;;;;;;;9.85;6.00;;;;;;;;;;5024927;28;20025;-85
2022/01/12 14:01:57;;;;;;;14.27;7.28;;;;;;;;;;4999392;28;20598;-85
2022/01/12 14:04:40;;;;;;;13.55;7.45;;;;;;;;;;5030210;28;20034;-85
2022/01/12 14:07:07;;;;;;;17.05;7.10;;;;;;;;;;5013253;28;20029;-85
2022/01/12 14:09:36;;;;;;;12.20;7.18;;;;;;;;;;5014954;28;20503;-85
2022/01/12 14:12:15;;;;;;;11.80;6.65;;;;;;;;;;5018184;28;20108;-86
2022/01/12 14:14:50;;;;;;;13.95;6.57;;;;;;;;;;5001433;28;20037;-85
2022/01/12 14:17:44;;;;;;;11.73;6.60;;;;;;;;;;5017261;28;20029;-85
2022/01/12 14:20:21;;;;;;;12.15;6.45;;;;;;;;;;5015688;28;20037;-85
2022/01/12 14:23:00;;;;;;;12.02;6.13;;;;;;;;;;5013316;28;20029;-85
2022/01/12 14:25:47;;;;;;;12.55;6.22;;;;;;;;;;5011227;28;20030;-85
2022/01/12 14:28:29;;;;;;;12.18;6.60;;;;;;;;;;4998444;28;20022;-85
2022/01/12 14:30:55;;;;;;;14.93;6.60;;;;;;;;;;4996011;28;20076;-85
2022/01/12 14:33:21;;;;;;;13.00;6.40;;;;;;;;;;4978032;28;20492;-85
2022/01/12 14:35:47;;;;;;;11.88;6.88;;;;;;;;;;5016313;28;20137;-85
2022/01/12 14:38:12;;;;;;;14.15;7.13;;;;;;;;;;4987386;28;20036;-86
2022/01/12 14:40:38;;;;;;;11.13;6.40;;;;;;;;;;5017182;28;20032;-83
2022/01/12 14:43:06;;;;;;;14.90;8.10;;;;;;;;;;5014588;28;20033;-82
2022/01/12 14:45:33;;;;;;;9.68;5.88;;;;;;;;;;5023349;28;20052;-85
2022/01/12 14:48:00;;;;;;;14.48;6.72;;;;;;;;;;4999310;28;20038;-85
2022/01/12 14:50:27;;;;;;;14.18;7.03;;;;;;;;;;4978404;28;20021;-84
2022/01/12 14:52:54;;;;;;;12.30;7.10;;;;;;;;;;4990768;28;20034;-85
2022/01/12 14:55:20;;;;;;;12.13;6.75;;;;;;;;;;4982099;28;20049;-85
2022/01/12 14:57:45;;;;;;;11.30;6.85;;;;;;;;;;4987698;28;20132;-85
2022/01/12 15:00:16;;;;;;;13.90;7.07;;;;;;;;;;5020897;28;20391;-86
2022/01/12 15:02:43;;;;;;;41.30;26.45;;;;;;;;;;5026784;28;20101;-85
2022/01/12 15:05:08;;;;;;;356.08;239.68;;;;;;;;;;5001526;28;20033;-85
2022/01/12 15:07:34;;;;;;;406.85;272.08;;;;;;;;;;5000688;28;20399;-85
2022/01/12 15:10:01;;;;;;;324.40;217.00;;;;;;;;;;4987976;28;20025;-84
2022/01/12 15:12:35;;;;;;;319.20;210.40;;;;;;;;;;5033595;28;20041;-82
2022/01/12 15:15:01;;;;;;;305.88;202.65;;;;;;;;;;5017027;28;20211;-85
2022/01/12 15:17:28;;;;;;;291.88;188.50;;;;;;;;;;5029517;28;20131;-85
2022/01/12 15:19:54;;;;;;;283.88;186.82;;;;;;;;;;4998121;28;20084;-85
2022/01/12 15:22:21;;;;;;;273.00;177.50;;;;;;;;;;4987715;28;20025;-85
2022/01/12 15:24:48;;;;;;;259.27;170.60;;;;;;;;;;5017004;28;20022;-88
2022/01/12 15:27:14;;;;;;;264.55;173.02;;;;;;;;;;5034093;28;20033;-83
2022/01/12 15:29:39;;;;;;;260.88;170.77;;;;;;;;;;5033547;28;20457;-85
2022/01/12 15:32:05;;;;;;;253.68;157.30;;;;;;;;;;5008473;28;20113;-83
2022/01/12 15:34:30;;;;;;;254.40;158.38;;;;;;;;;;5023341;28;20041;-83
2022/01/12 15:36:56;;;;;;;231.95;150.85;;;;;;;;;;5013576;28;20072;-82
2022/01/12 15:39:21;;;;;;;225.65;148.52;;;;;;;;;;5013215;28;20131;-80
2022/01/12 15:41:47;;;;;;;224.15;139.35;;;;;;;;;;5023924;28;20041;-79
2022/01/12 15:44:13;;;;;;;203.07;125.68;;;;;;;;;;5027593;28;20057;-80
2022/01/12 15:46:39;;;;;;;195.50;124.35;;;;;;;;;;5008171;28;20033;-80
2022/01/12 15:49:04;;;;;;;185.90;116.40;;;;;;;;;;4999889;28;20507;-81
2022/01/12 15:51:30;;;;;;;186.57;115.95;;;;;;;;;;5014260;28;20033;-81
2022/01/12 15:53:55;;;;;;;172.75;111.20;;;;;;;;;;4999752;28;20034;-81
2022/01/12 15:56:21;;;;;;;164.70;108.15;;;;;;;;;;4999918;28;20040;-81
2022/01/12 15:58:46;;;;;;;176.82;112.25;;;;;;;;;;5000249;28;20049;-81
2022/01/12 16:01:12;;;;;;;165.63;105.10;;;;;;;;;;5016319;28;20068;-81
2022/01/12 16:03:37;;;;;;;160.68;104.18;;;;;;;;;;4997881;28;20032;-81